PWSweather.com
Personal Weather Stations
Station Observations
PHMDWX
Perry Hall, MD 21236

Perry Hall, MD 21236

Lat: 39.418318, Lon: -76.490039

Elevation: 305

Station Type: Davis Vantage Pro

Latest ConditionsUpdated 11:00:02 AM EST Friday, Jan 20, 2017
Currently Today's Max Today's Min Today's Average
Temperature 38.6°F3.7°C 38.6°F3.7°C 31.8°F-0.1°C 34.4°F1.3°C
Dew Point 37.8°F3.2°C 37.8°F3.2°C 30.5°F-0.8°C 33.2°F0.7°C
Winds 1.2 mph ENE1.9 kmh ENE 1.5 mph E2.4 kmh E - 0.2 mph 0.3 kmh
Wind Gusts 3.0 mph4.8 kmh 3.0 mph4.8 kmh - -
Humidity 97% 97% 93% 95%
Pressure 29.95 in1014.2 mb 30.00 in1015.9 mb 29.95 in1014.2 mb -
Precipitation - 0.06 in1.5 mm - -
Hour Temp Dew Point Humidity Winds Wind Gusts Pressure Precip Precip Rate Daily Precip Total
11:00 AM 38.6°F3.7°C 37.8°F3.2°C 97% 1.2 mph ENE1.9 kmh ENE 3.0 mph4.8 kmh 29.95 in1014.2 mb - 0.00 in0.0 mm 0.06 in1.5 mm
10:30 AM 38.2°F3.4°C 37.4°F3.0°C 97% 1.5 mph E2.4 kmh E 3.0 mph4.8 kmh 29.96 in1014.6 mb - 0.01 in0.3 mm 0.06 in1.5 mm
10:00 AM 37.9°F3.3°C 36.9°F2.7°C 96% 0.2 mph E0.3 kmh E -- 29.97 in1014.9 mb - 0.04 in1.0 mm 0.05 in1.3 mm
09:30 AM 37.2°F2.9°C 35.9°F2.2°C 95% 0.4 mph ENE0.6 kmh ENE 1.0 mph1.6 kmh 29.97 in1014.9 mb - 0.02 in0.5 mm 0.02 in0.5 mm
09:00 AM 36.2°F2.3°C 34.9°F1.6°C 95% 0.3 mph ENE0.5 kmh ENE -- 29.95 in1014.2 mb - 0.00 in0.0 mm 0.00 in0.0 mm
08:30 AM 36.2°F2.3°C 35.2°F1.8°C 96% Calm Calm -- 29.96 in1014.6 mb - 0.00 in0.0 mm 0.00 in0.0 mm
08:00 AM 35.2°F1.8°C 34.2°F1.2°C 96% Calm Calm -- 29.96 in1014.6 mb - 0.00 in0.0 mm 0.00 in0.0 mm
07:30 AM 34.4°F1.3°C 33.4°F0.8°C 96% 0.1 mph ENE0.2 kmh ENE -- 29.95 in1014.2 mb - 0.00 in0.0 mm 0.00 in0.0 mm
07:00 AM 33.8°F1.0°C 32.8°F0.4°C 96% Calm Calm -- 29.96 in1014.6 mb - 0.00 in0.0 mm 0.00 in0.0 mm
06:30 AM 33.8°F1.0°C 32.5°F0.3°C 95% Calm Calm -- 29.97 in1014.9 mb - 0.00 in0.0 mm 0.00 in0.0 mm
06:00 AM 33.7°F0.9°C 32.4°F0.2°C 95% Calm Calm -- 29.96 in1014.6 mb - 0.00 in0.0 mm 0.00 in0.0 mm
05:30 AM 33.7°F0.9°C 32.7°F0.4°C 96% Calm Calm -- 29.96 in1014.6 mb - 0.00 in0.0 mm 0.00 in0.0 mm
05:00 AM 33.5°F0.8°C 32.5°F0.3°C 96% Calm Calm -- 29.95 in1014.2 mb - 0.00 in0.0 mm 0.00 in0.0 mm
04:30 AM 33.2°F0.7°C 32.2°F0.1°C 96% Calm Calm -- 29.96 in1014.6 mb - 0.00 in0.0 mm 0.00 in0.0 mm
04:00 AM 33.2°F0.7°C 32.2°F0.1°C 96% Calm Calm -- 29.97 in1014.9 mb - 0.00 in0.0 mm 0.00 in0.0 mm
03:30 AM 32.8°F0.4°C 31.8°F-0.1°C 96% Calm Calm -- 29.98 in1015.2 mb - 0.00 in0.0 mm 0.00 in0.0 mm
03:00 AM 31.8°F-0.1°C 30.5°F-0.8°C 95% Calm Calm -- 29.99 in1015.6 mb - 0.00 in0.0 mm 0.00 in0.0 mm
02:30 AM 32.2°F0.1°C 30.9°F-0.6°C 95% Calm Calm -- 29.99 in1015.6 mb - 0.00 in0.0 mm 0.00 in0.0 mm
02:00 AM 32.4°F0.2°C 31.1°F-0.5°C 95% Calm Calm -- 29.99 in1015.6 mb - 0.00 in0.0 mm 0.00 in0.0 mm
01:30 AM 32.4°F0.2°C 30.9°F-0.6°C 94% Calm Calm -- 29.98 in1015.2 mb - 0.00 in0.0 mm 0.00 in0.0 mm
01:00 AM 32.5°F0.3°C 30.7°F-0.7°C 93% Calm Calm -- 29.98 in1015.2 mb - 0.00 in0.0 mm 0.00 in0.0 mm
12:30 AM 33.4°F0.8°C 31.9°F-0.1°C 94% Calm Calm -- 29.99 in1015.6 mb - 0.00 in0.0 mm 0.00 in0.0 mm
12:00 AM 34.0°F1.1°C 32.5°F0.3°C 94% Calm Calm -- 30.00 in1015.9 mb - 0.00 in0.0 mm 0.00 in0.0 mm